Eira — OJJP — position and weather

sailwx.info

Track history (hours):
 
Tides and Currents Weather Stations Pressure Air Temp Water Temp Dewpoint Dewpoint Depression Visibility Wind Speed Wind Dir Waves Ship Positions

Eira

Last reported at 2016-Jul-24 02:32 UTC. Time now 2016-Jul-24 02:58 UTC.
Position N 58°40' E 017°07'.

Length 157 m; draft 9.3 m.

Type: Cargo ship. MMSI: 230935000.

Date/timePositionNaut miles runAvg speedWind from/ knotsBaromVisibWave heightAir tempDewpointWater temp
2016-Jul-24 02:32N 58°40' E 017°07'0 0.0
2016-Jul-24 01:29N 58°40' E 017°07'0 0.0
2016-Jul-24 00:32N 58°40' E 017°07'0 0.0
2016-Jul-23 23:32N 58°40' E 017°07'0 0.0
2016-Jul-23 22:32N 58°40' E 017°07'0 0.0
2016-Jul-23 21:32N 58°40' E 017°07'1 0.9
2016-Jul-23 20:33N 58°39' E 017°08'21 9.7
2016-Jul-23 18:26N 58°33' E 017°46'  
2016-Jul-21 03:20N 59°22' E 021°20'1012.3
2016-Jul-21 02:34N 59°32' E 021°20'1212.1
2016-Jul-21 01:33N 59°44' E 021°21'1110.7
2016-Jul-21 00:33N 59°53' E 021°31'1211.0
2016-Jul-20 23:28N 60°04' E 021°41'8 0.3
2016-Jul-19 23:17N 59°56' E 021°38'811.0
2016-Jul-19 22:33N 59°51' E 021°25'9 9.4
2016-Jul-19 21:34N 59°42' E 021°21'1010.2
2016-Jul-19 20:33N 59°34' E 021°33'10 9.8
2016-Jul-19 19:33N 59°32' E 021°51'1010.3
2016-Jul-19 18:33N 59°34' E 022°12'2110.2
2016-Jul-19 16:27N 59°38' E 022°53'910.1
2016-Jul-19 15:33N 59°39' E 023°11'1010.3
2016-Jul-19 14:33N 59°42' E 023°31'1010.1
2016-Jul-19 13:33N 59°44' E 023°50'2110.1
2016-Jul-19 11:31N 59°48' E 024°30'1110.5
2016-Jul-19 10:29N 59°50' E 024°52'1010.3
2016-Jul-19 09:31N 59°52' E 025°11'2410.9
2016-Jul-19 07:20N 59°57' E 025°57'3310.8
2016-Jul-19 04:17N 59°60' E 027°03'811.1
2016-Jul-19 03:33N 60°04' E 027°17'1311.3
2016-Jul-19 02:22N 60°11' E 027°40'810.3
2016-Jul-19 01:33N 60°11' E 027°57'1110.8
2016-Jul-19 00:33N 60°07' E 028°18'1010.6
2016-Jul-18 23:33N 60°02' E 028°36'10 9.9
2016-Jul-18 22:33N 59°53' E 028°30'10 9.9
2016-Jul-18 21:33N 59°43' E 028°25'2 1.4
2016-Jul-18 20:20N 59°41' E 028°25'0 0.0
2016-Jul-18 19:32N 59°41' E 028°25'0 0.0
2016-Jul-18 18:23N 59°41' E 028°25'0 0.0
2016-Jul-18 17:26N 59°41' E 028°25'0 0.0
2016-Jul-18 16:26N 59°41' E 028°25'0 0.0
2016-Jul-18 15:26N 59°41' E 028°25'0 0.0
2016-Jul-18 14:29N 59°41' E 028°25'0 0.0
2016-Jul-18 13:29N 59°41' E 028°25'0 0.0
2016-Jul-18 12:29N 59°41' E 028°25'0 0.0
2016-Jul-18 11:32N 59°41' E 028°25'0 0.0
2016-Jul-18 10:32N 59°41' E 028°25'0 0.0
2016-Jul-18 09:32N 59°41' E 028°25'0 0.0
2016-Jul-18 08:32N 59°41' E 028°25'0 0.0
2016-Jul-18 07:32N 59°41' E 028°25'0 0.0
2016-Jul-18 06:23N 59°41' E 028°25'0 0.0
2016-Jul-18 05:32N 59°41' E 028°25'0 0.0
2016-Jul-18 04:23N 59°41' E 028°25'0 0.0
2016-Jul-18 03:23N 59°41' E 028°25'0 0.0
2016-Jul-18 02:26N 59°41' E 028°25'0 0.0
2016-Jul-18 01:26N 59°41' E 028°25'0 0.0
2016-Jul-18 00:29N 59°41' E 028°25'0 0.0
2016-Jul-17 23:29N 59°41' E 028°25'0 0.0
2016-Jul-17 22:29N 59°41' E 028°25'0 0.0
2016-Jul-17 21:33N 59°41' E 028°25'5 4.8
2016-Jul-17 20:33N 59°46' E 028°25'1111.2
2016-Jul-17 19:33N 59°56' E 028°34'9 9.4
2016-Jul-17 18:33N 60°04' E 028°23'1111.3
2016-Jul-17 17:33N 60°09' E 028°02'1111.2
2016-Jul-17 16:33N 60°09' E 027°40'1211.7
2016-Jul-17 15:32N 60°03' E 027°19'1311.4
2016-Jul-17 14:23N 59°59' E 026°55'1011.7
2016-Jul-17 13:33N 59°59' E 026°35'9 9.2
2016-Jul-17 12:33N 60°07' E 026°29'1 0.1
2016-Jul-17 00:26N 60°09' E 026°29'0 0.0
2016-Jul-16 23:32N 60°09' E 026°29'0 0.0
2016-Jul-16 22:32N 60°08' E 026°29'0 0.0
2016-Jul-16 21:32N 60°08' E 026°29'0 0.0
2016-Jul-16 20:33N 60°08' E 026°29'5 4.7
2016-Jul-16 19:33N 60°06' E 026°38'10 9.6
2016-Jul-16 18:33N 60°01' E 026°54'9 8.6
2016-Jul-16 17:33N 60°02' E 027°11'9 9.2
2016-Jul-16 16:33N 60°06' E 027°26'10 9.7
2016-Jul-16 15:34N 60°11' E 027°43'9 9.2
2016-Jul-16 14:34N 60°10' E 028°01'9 9.3
2016-Jul-16 13:34N 60°07' E 028°19'1010.0
2016-Jul-16 12:33N 60°03' E 028°38'1110.5
2016-Jul-16 11:33N 60°03' E 028°59'2010.0
2016-Jul-16 09:33N 60°00' E 029°38'1010.4
2016-Jul-16 08:33N 59°56' E 029°57'8 7.6
2016-Jul-16 07:33N 59°53' E 030°11'0 0.0
2016-Jul-16 06:33N 59°53' E 030°11'0 0.0
2016-Jul-16 04:33N 59°53' E 030°11'0 0.0
2016-Jul-16 03:33N 59°53' E 030°11'0 0.0
2016-Jul-16 02:33N 59°53' E 030°11'0 0.0
2016-Jul-16 01:33N 59°53' E 030°11'0 0.0
2016-Jul-16 00:33N 59°53' E 030°11'0 0.0
2016-Jul-15 23:33N 59°53' E 030°11'0 0.0
2016-Jul-15 22:33N 59°53' E 030°11'0 0.0
2016-Jul-15 21:33N 59°53' E 030°11'0 0.0
2016-Jul-15 20:33N 59°53' E 030°11'0 0.0
2016-Jul-15 19:33N 59°53' E 030°11'0 0.0
2016-Jul-15 18:33N 59°53' E 030°11'0 0.0
2016-Jul-15 17:33N 59°53' E 030°11'0 0.0
2016-Jul-15 16:33N 59°53' E 030°11'0 0.0
2016-Jul-15 15:33N 59°53' E 030°11'0 0.0
2016-Jul-15 14:33N 59°53' E 030°11'0 0.0
2016-Jul-15 13:33N 59°53' E 030°11'0 0.0
2016-Jul-15 12:33N 59°53' E 030°11'0 0.0
2016-Jul-15 11:33N 59°53' E 030°11'0 0.0
2016-Jul-15 10:33N 59°53' E 030°11'0 0.0
2016-Jul-15 09:33N 59°53' E 030°11'0 0.0
2016-Jul-15 08:33N 59°53' E 030°11'0 0.0
2016-Jul-15 07:33N 59°53' E 030°11'0 0.0
2016-Jul-15 06:33N 59°53' E 030°11'6 6.1
2016-Jul-15 05:33N 59°55' E 030°00'1110.8
2016-Jul-15 04:32N 59°60' E 029°40'1010.1
2016-Jul-15 03:33N 60°01' E 029°21'10 9.2
2016-Jul-15 02:31N 60°02' E 029°02'8 8.2
2016-Jul-15 01:34N 60°02' E 028°46'9 9.0
2016-Jul-15 00:34N 60°03' E 028°28'1212.2
2016-Jul-14 23:33N 60°09' E 028°06'1212.0
2016-Jul-14 22:33N 60°10' E 027°42'1312.4
2016-Jul-14 21:32N 60°03' E 027°21'1212.2
2016-Jul-14 20:33N 59°58' E 026°59'1212.2
2016-Jul-14 19:34N 59°59' E 026°35'1212.3
2016-Jul-14 18:34N 59°56' E 026°11'1212.1
2016-Jul-14 17:33N 59°53' E 025°48'1212.2
2016-Jul-14 16:33N 59°50' E 025°24'1412.4
2016-Jul-14 15:27N 59°47' E 024°57'1112.7
2016-Jul-14 14:33N 59°45' E 024°35'1212.5
2016-Jul-14 13:33N 59°43' E 024°11'1212.4
2016-Jul-14 12:33N 59°41' E 023°46'1212.4
2016-Jul-14 11:33N 59°39' E 023°22'3812.6
2016-Jul-14 08:33N 59°35' E 022°07'1212.4
2016-Jul-14 07:33N 59°34' E 021°43'1111.3
2016-Jul-14 06:33N 59°40' E 021°24'1010.0
2016-Jul-14 05:33N 59°50' E 021°23'1211.5
2016-Jul-14 04:33N 59°57' E 021°41'  
Track history (hours):
 
Tides and Currents Weather Stations Pressure Air Temp Water Temp Dewpoint Dewpoint Depression Visibility Wind Speed Wind Dir Waves Ship Positions

Eira

Last reported at 2016-Jul-24 02:32 UTC. Time now 2016-Jul-24 02:58 UTC.
Position N 58°40' E 017°07'.

Length 157 m; draft 9.3 m.

Type: Cargo ship. MMSI: 230935000.

Date/timePositionNaut miles runAvg speedWind from/ knotsBaromVisibWave heightAir tempDewpointWater temp
2016-Jul-24 02:32N 58°40' E 017°07'0 0.0
2016-Jul-24 01:29N 58°40' E 017°07'0 0.0
2016-Jul-24 00:32N 58°40' E 017°07'0 0.0
2016-Jul-23 23:32N 58°40' E 017°07'0 0.0
2016-Jul-23 22:32N 58°40' E 017°07'0 0.0
2016-Jul-23 21:32N 58°40' E 017°07'1 0.9
2016-Jul-23 20:33N 58°39' E 017°08'21 9.7
2016-Jul-23 18:26N 58°33' E 017°46'  
2016-Jul-21 03:20N 59°22' E 021°20'1012.3
2016-Jul-21 02:34N 59°32' E 021°20'1212.1
2016-Jul-21 01:33N 59°44' E 021°21'1110.7
2016-Jul-21 00:33N 59°53' E 021°31'1211.0
2016-Jul-20 23:28N 60°04' E 021°41'8 0.3
2016-Jul-19 23:17N 59°56' E 021°38'811.0
2016-Jul-19 22:33N 59°51' E 021°25'9 9.4
2016-Jul-19 21:34N 59°42' E 021°21'1010.2
2016-Jul-19 20:33N 59°34' E 021°33'10 9.8
2016-Jul-19 19:33N 59°32' E 021°51'1010.3
2016-Jul-19 18:33N 59°34' E 022°12'2110.2
2016-Jul-19 16:27N 59°38' E 022°53'910.1
2016-Jul-19 15:33N 59°39' E 023°11'1010.3
2016-Jul-19 14:33N 59°42' E 023°31'1010.1
2016-Jul-19 13:33N 59°44' E 023°50'2110.1
2016-Jul-19 11:31N 59°48' E 024°30'1110.5
2016-Jul-19 10:29N 59°50' E 024°52'1010.3
2016-Jul-19 09:31N 59°52' E 025°11'2410.9
2016-Jul-19 07:20N 59°57' E 025°57'3310.8
2016-Jul-19 04:17N 59°60' E 027°03'811.1
2016-Jul-19 03:33N 60°04' E 027°17'1311.3
2016-Jul-19 02:22N 60°11' E 027°40'810.3
2016-Jul-19 01:33N 60°11' E 027°57'1110.8
2016-Jul-19 00:33N 60°07' E 028°18'1010.6
2016-Jul-18 23:33N 60°02' E 028°36'10 9.9
2016-Jul-18 22:33N 59°53' E 028°30'10 9.9
2016-Jul-18 21:33N 59°43' E 028°25'2 1.4
2016-Jul-18 20:20N 59°41' E 028°25'0 0.0
2016-Jul-18 19:32N 59°41' E 028°25'0 0.0
2016-Jul-18 18:23N 59°41' E 028°25'0 0.0
2016-Jul-18 17:26N 59°41' E 028°25'0 0.0
2016-Jul-18 16:26N 59°41' E 028°25'0 0.0
2016-Jul-18 15:26N 59°41' E 028°25'0 0.0
2016-Jul-18 14:29N 59°41' E 028°25'0 0.0
2016-Jul-18 13:29N 59°41' E 028°25'0 0.0
2016-Jul-18 12:29N 59°41' E 028°25'0 0.0
2016-Jul-18 11:32N 59°41' E 028°25'0 0.0
2016-Jul-18 10:32N 59°41' E 028°25'0 0.0
2016-Jul-18 09:32N 59°41' E 028°25'0 0.0
2016-Jul-18 08:32N 59°41' E 028°25'0 0.0
2016-Jul-18 07:32N 59°41' E 028°25'0 0.0
2016-Jul-18 06:23N 59°41' E 028°25'0 0.0
2016-Jul-18 05:32N 59°41' E 028°25'0 0.0
2016-Jul-18 04:23N 59°41' E 028°25'0 0.0
2016-Jul-18 03:23N 59°41' E 028°25'0 0.0
2016-Jul-18 02:26N 59°41' E 028°25'0 0.0
2016-Jul-18 01:26N 59°41' E 028°25'0 0.0
2016-Jul-18 00:29N 59°41' E 028°25'0 0.0
2016-Jul-17 23:29N 59°41' E 028°25'0 0.0
2016-Jul-17 22:29N 59°41' E 028°25'0 0.0
2016-Jul-17 21:33N 59°41' E 028°25'5 4.8
2016-Jul-17 20:33N 59°46' E 028°25'1111.2
2016-Jul-17 19:33N 59°56' E 028°34'9 9.4
2016-Jul-17 18:33N 60°04' E 028°23'1111.3
2016-Jul-17 17:33N 60°09' E 028°02'1111.2
2016-Jul-17 16:33N 60°09' E 027°40'1211.7
2016-Jul-17 15:32N 60°03' E 027°19'1311.4
2016-Jul-17 14:23N 59°59' E 026°55'1011.7
2016-Jul-17 13:33N 59°59' E 026°35'9 9.2
2016-Jul-17 12:33N 60°07' E 026°29'1 0.1
2016-Jul-17 00:26N 60°09' E 026°29'0 0.0
2016-Jul-16 23:32N 60°09' E 026°29'0 0.0
2016-Jul-16 22:32N 60°08' E 026°29'0 0.0
2016-Jul-16 21:32N 60°08' E 026°29'0 0.0
2016-Jul-16 20:33N 60°08' E 026°29'5 4.7
2016-Jul-16 19:33N 60°06' E 026°38'10 9.6
2016-Jul-16 18:33N 60°01' E 026°54'9 8.6
2016-Jul-16 17:33N 60°02' E 027°11'9 9.2
2016-Jul-16 16:33N 60°06' E 027°26'10 9.7
2016-Jul-16 15:34N 60°11' E 027°43'9 9.2
2016-Jul-16 14:34N 60°10' E 028°01'9 9.3
2016-Jul-16 13:34N 60°07' E 028°19'1010.0
2016-Jul-16 12:33N 60°03' E 028°38'1110.5
2016-Jul-16 11:33N 60°03' E 028°59'2010.0
2016-Jul-16 09:33N 60°00' E 029°38'1010.4
2016-Jul-16 08:33N 59°56' E 029°57'8 7.6
2016-Jul-16 07:33N 59°53' E 030°11'0 0.0
2016-Jul-16 06:33N 59°53' E 030°11'0 0.0
2016-Jul-16 04:33N 59°53' E 030°11'0 0.0
2016-Jul-16 03:33N 59°53' E 030°11'0 0.0
2016-Jul-16 02:33N 59°53' E 030°11'0 0.0
2016-Jul-16 01:33N 59°53' E 030°11'0 0.0
2016-Jul-16 00:33N 59°53' E 030°11'0 0.0
2016-Jul-15 23:33N 59°53' E 030°11'0 0.0
2016-Jul-15 22:33N 59°53' E 030°11'0 0.0
2016-Jul-15 21:33N 59°53' E 030°11'0 0.0
2016-Jul-15 20:33N 59°53' E 030°11'0 0.0
2016-Jul-15 19:33N 59°53' E 030°11'0 0.0
2016-Jul-15 18:33N 59°53' E 030°11'0 0.0
2016-Jul-15 17:33N 59°53' E 030°11'0 0.0
2016-Jul-15 16:33N 59°53' E 030°11'0 0.0
2016-Jul-15 15:33N 59°53' E 030°11'0 0.0
2016-Jul-15 14:33N 59°53' E 030°11'0 0.0
2016-Jul-15 13:33N 59°53' E 030°11'0 0.0
2016-Jul-15 12:33N 59°53' E 030°11'0 0.0
2016-Jul-15 11:33N 59°53' E 030°11'0 0.0
2016-Jul-15 10:33N 59°53' E 030°11'0 0.0
2016-Jul-15 09:33N 59°53' E 030°11'0 0.0
2016-Jul-15 08:33N 59°53' E 030°11'0 0.0
2016-Jul-15 07:33N 59°53' E 030°11'0 0.0
2016-Jul-15 06:33N 59°53' E 030°11'6 6.1
2016-Jul-15 05:33N 59°55' E 030°00'1110.8
2016-Jul-15 04:32N 59°60' E 029°40'1010.1
2016-Jul-15 03:33N 60°01' E 029°21'10 9.2
2016-Jul-15 02:31N 60°02' E 029°02'8 8.2
2016-Jul-15 01:34N 60°02' E 028°46'9 9.0
2016-Jul-15 00:34N 60°03' E 028°28'1212.2
2016-Jul-14 23:33N 60°09' E 028°06'1212.0
2016-Jul-14 22:33N 60°10' E 027°42'1312.4
2016-Jul-14 21:32N 60°03' E 027°21'1212.2
2016-Jul-14 20:33N 59°58' E 026°59'1212.2
2016-Jul-14 19:34N 59°59' E 026°35'1212.3
2016-Jul-14 18:34N 59°56' E 026°11'1212.1
2016-Jul-14 17:33N 59°53' E 025°48'1212.2
2016-Jul-14 16:33N 59°50' E 025°24'1412.4
2016-Jul-14 15:27N 59°47' E 024°57'1112.7
2016-Jul-14 14:33N 59°45' E 024°35'1212.5
2016-Jul-14 13:33N 59°43' E 024°11'1212.4
2016-Jul-14 12:33N 59°41' E 023°46'1212.4
2016-Jul-14 11:33N 59°39' E 023°22'3812.6
2016-Jul-14 08:33N 59°35' E 022°07'1212.4
2016-Jul-14 07:33N 59°34' E 021°43'1111.3
2016-Jul-14 06:33N 59°40' E 021°24'1010.0
2016-Jul-14 05:33N 59°50' E 021°23'1211.5
2016-Jul-14 04:33N 59°57' E 021°41'  

Dump ship's entire track history